createdAt,value
2023-02-05T00:00:47.613Z,19.69
2023-02-05T00:01:47.687Z,19.69
2023-02-05T00:02:47.605Z,19.69
2023-02-05T00:03:47.666Z,19.69
2023-02-05T00:04:47.572Z,19.68
2023-02-05T00:05:47.569Z,19.68
2023-02-05T00:06:47.582Z,19.68
2023-02-05T00:07:47.563Z,19.69
2023-02-05T00:08:47.548Z,19.69
2023-02-05T00:09:47.546Z,19.68
2023-02-05T00:10:47.504Z,19.68
2023-02-05T00:12:44.294Z,19.71
2023-02-05T00:13:44.272Z,19.66
2023-02-05T00:14:44.243Z,19.68
2023-02-05T00:15:44.278Z,19.66
2023-02-05T00:16:44.223Z,19.68
2023-02-05T00:17:44.222Z,19.68
2023-02-05T00:18:44.252Z,19.68
2023-02-05T00:19:44.231Z,19.68
2023-02-05T00:20:44.193Z,19.68
2023-02-05T00:21:44.249Z,19.66
2023-02-05T00:22:44.180Z,19.66
2023-02-05T00:23:44.184Z,19.68
2023-02-05T00:24:44.132Z,19.66
2023-02-05T00:25:44.138Z,19.65
2023-02-05T00:26:44.146Z,19.68
2023-02-05T00:27:44.168Z,19.65
2023-02-05T00:28:44.099Z,19.68
2023-02-05T00:29:44.107Z,19.68
2023-02-05T00:30:44.139Z,19.66
2023-02-05T00:31:44.159Z,19.68
2023-02-05T00:32:44.051Z,19.68
2023-02-05T00:33:44.074Z,19.69
2023-02-05T00:34:44.059Z,19.68
2023-02-05T00:35:44.081Z,19.68
2023-02-05T00:36:44.025Z,19.68
2023-02-05T00:37:44.031Z,19.68
2023-02-05T00:38:43.995Z,19.68
2023-02-05T00:39:44.016Z,19.66
2023-02-05T00:40:43.994Z,19.68
2023-02-05T00:41:43.986Z,19.66
2023-02-05T00:42:43.940Z,19.66
2023-02-05T00:43:44.009Z,19.68
2023-02-05T00:44:44.912Z,19.68
2023-02-05T00:45:43.929Z,19.66
2023-02-05T00:46:43.928Z,19.66
2023-02-05T00:47:43.921Z,19.68
2023-02-05T00:48:43.919Z,19.68
2023-02-05T00:49:43.940Z,19.68
2023-02-05T00:50:43.864Z,19.68
2023-02-05T00:51:43.891Z,19.68
2023-02-05T00:52:43.881Z,19.66
2023-02-05T00:53:43.851Z,19.66
2023-02-05T00:54:43.838Z,19.66
2023-02-05T00:55:43.844Z,19.66
2023-02-05T00:56:43.799Z,19.68
2023-02-05T00:57:43.809Z,19.66
2023-02-05T00:58:43.769Z,19.66
2023-02-05T00:59:43.773Z,19.66
2023-02-05T01:00:43.772Z,19.68
2023-02-05T01:01:43.818Z,19.68
2023-02-05T01:02:43.780Z,19.68
2023-02-05T01:03:43.779Z,19.68
2023-02-05T01:04:43.761Z,19.68
2023-02-05T01:05:43.733Z,19.68
2023-02-05T01:06:43.714Z,19.69
2023-02-05T01:07:43.697Z,19.68
2023-02-05T01:08:43.693Z,19.68
2023-02-05T01:09:43.737Z,19.68
2023-02-05T01:10:43.674Z,19.68
2023-02-05T01:11:43.709Z,19.66
2023-02-05T01:12:43.633Z,19.66
2023-02-05T01:13:43.680Z,19.68
2023-02-05T01:14:43.864Z,19.68
2023-02-05T01:15:43.628Z,19.69
2023-02-05T01:16:43.586Z,19.69
2023-02-05T01:17:43.600Z,19.68
2023-02-05T01:18:43.577Z,19.69
2023-02-05T01:19:43.609Z,19.68
2023-02-05T01:20:43.588Z,19.68
2023-02-05T01:21:43.569Z,19.68
2023-02-05T01:22:43.537Z,19.69
2023-02-05T01:23:43.570Z,19.68
2023-02-05T01:24:43.506Z,19.69
2023-02-05T01:25:43.550Z,19.69
2023-02-05T01:26:43.496Z,19.69
2023-02-05T01:27:43.535Z,19.69
2023-02-05T01:28:43.487Z,19.68
2023-02-05T01:29:43.489Z,19.69
2023-02-05T01:30:43.527Z,19.68
2023-02-05T01:31:43.644Z,19.69
2023-02-05T01:32:43.459Z,19.69
2023-02-05T01:33:43.451Z,19.69
2023-02-05T01:34:43.420Z,19.69
2023-02-05T01:35:43.418Z,19.69
2023-02-05T01:36:43.386Z,19.69
2023-02-05T01:37:43.419Z,19.69
2023-02-05T01:38:43.365Z,19.69
2023-02-05T01:39:43.365Z,19.69
2023-02-05T01:40:43.346Z,19.69
2023-02-05T01:41:43.354Z,19.69
2023-02-05T01:42:43.313Z,19.69
2023-02-05T01:43:43.342Z,19.69
2023-02-05T01:44:43.317Z,19.69
2023-02-05T01:45:43.312Z,19.71
2023-02-05T01:46:43.317Z,19.69
2023-02-05T01:47:43.284Z,19.68
2023-02-05T01:48:43.290Z,19.71
2023-02-05T01:49:43.283Z,19.68
2023-02-05T01:50:43.244Z,19.71
2023-02-05T01:51:43.292Z,19.69
2023-02-05T01:52:43.229Z,19.69
2023-02-05T01:53:43.219Z,19.71
2023-02-05T01:54:43.201Z,19.69
2023-02-05T01:55:43.201Z,19.69
2023-02-05T01:56:43.180Z,19.69
2023-02-05T01:57:43.182Z,19.71
2023-02-05T01:58:43.141Z,19.69
2023-02-05T01:59:43.190Z,19.71
2023-02-05T02:00:43.176Z,19.69
2023-02-05T02:01:43.199Z,19.69
2023-02-05T02:02:43.119Z,19.69
2023-02-05T02:03:43.173Z,19.71
2023-02-05T02:04:43.143Z,19.71
2023-02-05T02:05:43.135Z,19.71
2023-02-05T02:06:43.081Z,19.69
2023-02-05T02:07:43.075Z,19.71
2023-02-05T02:08:43.702Z,19.71
2023-02-05T02:09:43.117Z,19.69
2023-02-05T02:10:43.024Z,19.69
2023-02-05T02:11:43.040Z,19.69
2023-02-05T02:12:43.020Z,19.69
2023-02-05T02:13:43.010Z,19.71
2023-02-05T02:14:42.985Z,19.69
2023-02-05T02:15:43.041Z,19.69
2023-02-05T02:16:42.989Z,19.71
2023-02-05T02:17:43.010Z,19.71
2023-02-05T02:18:42.951Z,19.69
2023-02-05T02:19:42.968Z,19.71
2023-02-05T02:20:42.923Z,19.71
2023-02-05T02:21:42.956Z,19.69
2023-02-05T02:22:43.899Z,19.69
2023-02-05T02:23:42.923Z,19.71
2023-02-05T02:24:42.881Z,19.71
2023-02-05T02:25:42.883Z,19.71
2023-02-05T02:26:42.902Z,19.71
2023-02-05T02:27:42.894Z,19.71
2023-02-05T02:28:42.846Z,19.73
2023-02-05T02:29:42.843Z,19.71
2023-02-05T02:30:42.863Z,19.71
2023-02-05T02:31:42.921Z,19.71
2023-02-05T02:32:42.821Z,19.71
2023-02-05T02:33:42.802Z,19.69
2023-02-05T02:34:42.781Z,19.71
2023-02-05T02:35:42.781Z,19.71
2023-02-05T02:36:42.782Z,19.71
2023-02-05T02:37:42.751Z,19.71
2023-02-05T02:38:42.783Z,19.69
2023-02-05T02:39:42.750Z,19.71
2023-02-05T02:40:42.742Z,19.71
2023-02-05T02:41:42.753Z,19.71
2023-02-05T02:42:42.703Z,19.71
2023-02-05T02:43:42.704Z,19.71
2023-02-05T02:44:42.974Z,19.71
2023-02-05T02:45:42.688Z,19.69
2023-02-05T02:46:42.825Z,19.69
2023-02-05T02:47:42.666Z,19.69
2023-02-05T02:48:42.652Z,19.69
2023-02-05T02:49:42.635Z,19.71
2023-02-05T02:50:42.617Z,19.69
2023-02-05T02:51:42.616Z,19.69
2023-02-05T02:52:43.015Z,19.71
2023-02-05T02:53:42.619Z,19.69
2023-02-05T02:54:42.578Z,19.71
2023-02-05T02:55:43.702Z,19.71
2023-02-05T02:56:42.609Z,19.71
2023-02-05T02:57:42.602Z,19.71
2023-02-05T02:58:42.541Z,19.71
2023-02-05T02:59:42.540Z,19.69
2023-02-05T03:00:42.558Z,19.71
2023-02-05T03:01:46.952Z,19.71
2023-02-05T03:02:43.523Z,19.71
2023-02-05T03:03:42.548Z,19.73
2023-02-05T03:04:42.468Z,19.71
2023-02-05T03:05:42.466Z,19.71
2023-02-05T03:06:42.448Z,19.71
2023-02-05T03:07:42.464Z,19.71
2023-02-05T03:08:43.000Z,19.71
2023-02-05T03:09:42.429Z,19.71
2023-02-05T03:10:42.414Z,19.69
2023-02-05T03:11:42.410Z,19.69
2023-02-05T03:12:42.397Z,19.71
2023-02-05T03:13:42.416Z,19.71
2023-02-05T03:14:42.400Z,19.69
2023-02-05T03:15:42.424Z,19.71
2023-02-05T03:16:42.350Z,19.71
2023-02-05T03:17:42.355Z,19.71
2023-02-05T03:18:42.332Z,19.71
2023-02-05T03:19:42.525Z,19.69
2023-02-05T03:20:42.300Z,19.71
2023-02-05T03:21:42.305Z,19.71
2023-02-05T03:22:42.274Z,19.73
2023-02-05T03:23:42.277Z,19.69
2023-02-05T03:24:42.280Z,19.71
2023-02-05T03:25:42.281Z,19.69
2023-02-05T03:26:42.257Z,19.71
2023-02-05T03:27:42.282Z,19.71
2023-02-05T03:28:42.338Z,19.71
2023-02-05T03:29:42.531Z,19.71
2023-02-05T03:30:42.279Z,19.71
2023-02-05T03:31:42.239Z,19.69
2023-02-05T03:32:42.181Z,19.71
2023-02-05T03:33:42.171Z,19.71
2023-02-05T03:34:42.182Z,19.73
2023-02-05T03:35:42.204Z,19.71
2023-02-05T03:36:42.151Z,19.69
2023-02-05T03:37:42.141Z,19.69
2023-02-05T03:38:42.138Z,19.71
2023-02-05T03:39:42.104Z,19.71
2023-02-05T03:40:42.130Z,19.71
2023-02-05T03:41:42.090Z,19.69
2023-02-05T03:42:42.081Z,19.71
2023-02-05T03:43:42.062Z,19.71
2023-02-05T03:44:42.082Z,19.69
2023-02-05T03:45:42.083Z,19.71
2023-02-05T03:46:42.719Z,19.71
2023-02-05T03:47:42.041Z,19.71
2023-02-05T03:48:42.057Z,19.69
2023-02-05T03:49:42.016Z,19.71
2023-02-05T03:50:42.022Z,19.71
2023-02-05T03:51:41.976Z,19.69
2023-02-05T03:52:41.970Z,19.69
2023-02-05T03:53:41.948Z,19.69
2023-02-05T03:54:41.950Z,19.69
2023-02-05T03:55:42.488Z,19.69
2023-02-05T03:56:42.027Z,19.69
2023-02-05T03:57:41.913Z,19.69
2023-02-05T03:58:41.915Z,19.71
2023-02-05T03:59:41.910Z,19.69
2023-02-05T04:00:41.955Z,19.71
2023-02-05T04:01:41.866Z,19.69
2023-02-05T04:02:41.878Z,19.69
2023-02-05T04:03:41.836Z,19.69
2023-02-05T04:04:41.852Z,19.71
2023-02-05T04:05:41.826Z,19.71
2023-02-05T04:06:41.845Z,19.71
2023-02-05T04:07:41.826Z,19.71
2023-02-05T04:08:41.804Z,19.69
2023-02-05T04:09:41.783Z,19.71
2023-02-05T04:10:41.788Z,19.69
2023-02-05T04:11:41.776Z,19.69
2023-02-05T04:12:41.758Z,19.71
2023-02-05T04:13:41.733Z,19.68
2023-02-05T04:14:41.743Z,19.71
2023-02-05T04:15:41.744Z,19.71
2023-02-05T04:16:42.038Z,19.71
2023-02-05T04:17:41.685Z,19.71
2023-02-05T04:18:41.704Z,19.69
2023-02-05T04:19:41.698Z,19.69
2023-02-05T04:20:41.673Z,19.68
2023-02-05T04:21:41.645Z,19.69
2023-02-05T04:22:41.694Z,19.69
2023-02-05T04:23:41.644Z,19.69
2023-02-05T04:24:41.648Z,19.69
2023-02-05T04:25:41.610Z,19.71
2023-02-05T04:26:46.384Z,19.69
2023-02-05T04:27:41.965Z,19.69
2023-02-05T04:28:41.603Z,19.69
2023-02-05T04:29:41.563Z,19.69
2023-02-05T04:30:41.636Z,19.71
2023-02-05T04:31:41.603Z,19.68
2023-02-05T04:32:41.556Z,19.69
2023-02-05T04:33:41.531Z,19.68
2023-02-05T04:34:41.587Z,19.71
2023-02-05T04:35:41.509Z,19.69
2023-02-05T04:36:41.500Z,19.69
2023-02-05T04:37:41.477Z,19.69
2023-02-05T04:38:41.526Z,19.71
2023-02-05T04:39:41.482Z,19.69
2023-02-05T04:40:41.490Z,19.71
2023-02-05T04:41:41.459Z,19.71
2023-02-05T04:42:41.449Z,19.69
2023-02-05T04:43:41.487Z,19.69
2023-02-05T04:44:41.509Z,19.69
2023-02-05T04:45:41.451Z,19.69
2023-02-05T04:46:41.412Z,19.69
2023-02-05T04:47:41.380Z,19.71
2023-02-05T04:48:41.387Z,19.69
2023-02-05T04:49:41.348Z,19.68
2023-02-05T04:50:41.391Z,19.69
2023-02-05T04:51:41.343Z,19.69
2023-02-05T04:52:41.339Z,19.69
2023-02-05T04:53:41.350Z,19.69
2023-02-05T04:54:41.319Z,19.68
2023-02-05T04:55:41.290Z,19.69
2023-02-05T04:56:41.322Z,19.69
2023-02-05T04:57:41.270Z,19.69
2023-02-05T04:58:41.302Z,19.68
2023-02-05T04:59:41.264Z,19.68
2023-02-05T05:00:41.271Z,19.71
2023-02-05T05:01:41.252Z,19.68
2023-02-05T05:02:41.310Z,19.68
2023-02-05T05:03:41.213Z,19.69
2023-02-05T05:04:43.150Z,19.69
2023-02-05T05:05:41.193Z,19.68
2023-02-05T05:06:41.195Z,19.68
2023-02-05T05:07:41.440Z,19.69
2023-02-05T05:08:41.182Z,19.69
2023-02-05T05:09:41.170Z,19.69
2023-02-05T05:10:41.143Z,19.69
2023-02-05T05:11:41.164Z,19.69
2023-02-05T05:13:37.908Z,19.71
2023-02-05T05:14:37.906Z,19.69
2023-02-05T05:15:37.963Z,19.69
2023-02-05T05:16:37.883Z,19.69
2023-02-05T05:17:37.888Z,19.66
2023-02-05T05:18:37.829Z,19.69
2023-02-05T05:19:37.826Z,19.69
2023-02-05T05:20:37.836Z,19.68
2023-02-05T05:21:37.808Z,19.68
2023-02-05T05:22:37.777Z,19.68
2023-02-05T05:23:37.805Z,19.68
2023-02-05T05:24:37.770Z,19.68
2023-02-05T05:25:37.829Z,19.69
2023-02-05T05:26:37.789Z,19.68
2023-02-05T05:27:37.758Z,19.68
2023-02-05T05:28:37.731Z,19.66
2023-02-05T05:29:37.780Z,19.68
2023-02-05T05:30:37.719Z,19.69
2023-02-05T05:31:37.730Z,19.68
2023-02-05T05:32:37.708Z,19.68
2023-02-05T05:33:37.700Z,19.68
2023-02-05T05:34:37.671Z,19.68
2023-02-05T05:35:37.668Z,19.66
2023-02-05T05:36:37.662Z,19.69
2023-02-05T05:37:37.670Z,19.69
2023-02-05T05:38:37.619Z,19.69
2023-02-05T05:39:37.643Z,19.69
2023-02-05T05:40:37.631Z,19.68
2023-02-05T05:41:37.635Z,19.69
2023-02-05T05:42:37.601Z,19.69
2023-02-05T05:43:37.611Z,19.71
2023-02-05T05:44:37.579Z,19.69
2023-02-05T05:45:37.592Z,19.69
2023-02-05T05:46:37.554Z,19.68
2023-02-05T05:47:37.571Z,19.69
2023-02-05T05:48:37.537Z,19.71
2023-02-05T05:49:37.531Z,19.69
2023-02-05T05:50:37.510Z,19.71
2023-02-05T05:51:37.550Z,19.69
2023-02-05T05:52:37.500Z,19.69
2023-02-05T05:53:37.497Z,19.69
2023-02-05T05:54:37.528Z,19.69
2023-02-05T05:55:37.460Z,19.68
2023-02-05T05:56:37.469Z,19.69
2023-02-05T05:57:37.444Z,19.69
2023-02-05T05:58:37.459Z,19.69
2023-02-05T05:59:37.456Z,19.69
2023-02-05T06:00:37.430Z,19.69
2023-02-05T06:01:37.375Z,19.69
2023-02-05T06:02:37.489Z,19.69
2023-02-05T06:03:37.395Z,19.69
2023-02-05T06:04:37.408Z,19.68
2023-02-05T06:05:38.335Z,19.68
2023-02-05T06:06:37.358Z,19.69
2023-02-05T06:07:37.356Z,19.69
2023-02-05T06:08:37.335Z,19.69
2023-02-05T06:09:37.305Z,19.68
2023-02-05T06:10:37.323Z,19.69
2023-02-05T06:11:37.297Z,19.69
2023-02-05T06:12:37.303Z,19.71
2023-02-05T06:13:37.284Z,19.69
2023-02-05T06:14:37.262Z,19.68
2023-02-05T06:15:37.592Z,19.69
2023-02-05T06:16:37.244Z,19.71
2023-02-05T06:17:37.212Z,19.66
2023-02-05T06:18:37.267Z,19.68
2023-02-05T06:19:37.221Z,19.69
2023-02-05T06:20:37.202Z,19.68
2023-02-05T06:21:37.220Z,19.68
2023-02-05T06:22:37.204Z,19.71
2023-02-05T06:23:37.159Z,19.68
2023-02-05T06:24:37.175Z,19.69
2023-02-05T06:25:37.144Z,19.69
2023-02-05T06:26:37.140Z,19.69
2023-02-05T06:27:37.132Z,19.69
2023-02-05T06:28:37.136Z,19.68
2023-02-05T06:29:37.107Z,19.69
2023-02-05T06:30:37.305Z,19.69
2023-02-05T06:31:37.151Z,19.69
2023-02-05T06:32:37.128Z,19.68
2023-02-05T06:33:37.074Z,19.68
2023-02-05T06:34:37.096Z,19.69
2023-02-05T06:35:37.166Z,19.69
2023-02-05T06:36:37.052Z,19.71
2023-02-05T06:37:48.271Z,19.68
2023-02-05T06:38:38.068Z,19.71
2023-02-05T06:39:36.996Z,19.69
2023-02-05T06:40:37.004Z,19.71
2023-02-05T06:41:36.991Z,19.71
2023-02-05T06:42:36.981Z,19.71
2023-02-05T06:43:36.959Z,19.71
2023-02-05T06:44:37.011Z,19.69
2023-02-05T06:45:37.252Z,19.71
2023-02-05T06:46:36.983Z,19.73
2023-02-05T06:47:36.964Z,19.71
2023-02-05T06:48:36.934Z,19.71
2023-02-05T06:49:36.895Z,19.73
2023-02-05T06:50:36.905Z,19.73
2023-02-05T06:51:36.883Z,19.73
2023-02-05T06:52:36.875Z,19.73
2023-02-05T06:53:36.849Z,19.73
2023-02-05T06:54:36.837Z,19.73
2023-02-05T06:55:37.033Z,19.73
2023-02-05T06:56:36.856Z,19.73
2023-02-05T06:57:36.819Z,19.73
2023-02-05T06:58:36.804Z,19.73
2023-02-05T06:59:36.806Z,19.73
2023-02-05T07:00:36.791Z,19.74
2023-02-05T07:01:36.746Z,19.73
2023-02-05T07:02:36.800Z,19.74
2023-02-05T07:03:36.753Z,19.74
2023-02-05T07:04:36.953Z,19.73
2023-02-05T07:05:37.025Z,19.74
2023-02-05T07:06:36.734Z,19.74
2023-02-05T07:07:36.723Z,19.74
2023-02-05T07:08:36.720Z,19.74
2023-02-05T07:09:36.706Z,19.73
2023-02-05T07:10:36.708Z,19.73
2023-02-05T07:11:36.679Z,19.74
2023-02-05T07:12:36.693Z,19.74
2023-02-05T07:13:36.682Z,19.74
2023-02-05T07:14:36.659Z,19.76
2023-02-05T07:15:36.906Z,19.76
2023-02-05T07:16:36.720Z,19.74
2023-02-05T07:17:36.642Z,19.74
2023-02-05T07:18:36.659Z,19.76
2023-02-05T07:19:36.587Z,19.76
2023-02-05T07:20:37.572Z,19.76
2023-02-05T07:21:36.582Z,19.74
2023-02-05T07:22:36.564Z,19.74
2023-02-05T07:23:36.564Z,19.76
2023-02-05T07:24:36.556Z,19.76
2023-02-05T07:25:36.747Z,19.76
2023-02-05T07:26:36.517Z,19.76
2023-02-05T07:27:36.443Z,19.76
2023-02-05T07:28:36.460Z,19.76
2023-02-05T07:29:36.483Z,19.76
2023-02-05T07:30:36.473Z,19.76
2023-02-05T07:31:36.585Z,19.76
2023-02-05T07:32:36.401Z,19.74
2023-02-05T07:33:36.405Z,19.77
2023-02-05T07:34:36.406Z,19.76
2023-02-05T07:35:36.573Z,19.74
2023-02-05T07:36:36.375Z,19.76
2023-02-05T07:37:36.364Z,19.74
2023-02-05T07:38:36.365Z,19.74
2023-02-05T07:39:36.313Z,19.76
2023-02-05T07:40:36.342Z,19.74
2023-02-05T07:41:36.281Z,19.74
2023-02-05T07:42:36.311Z,19.74
2023-02-05T07:43:36.511Z,19.74
2023-02-05T07:44:36.270Z,19.74
2023-02-05T07:45:36.574Z,19.74
2023-02-05T07:46:36.910Z,19.74
2023-02-05T07:47:36.252Z,19.74
2023-02-05T07:48:36.239Z,19.74
2023-02-05T07:49:36.244Z,19.74
2023-02-05T07:50:36.269Z,19.74
2023-02-05T07:51:36.188Z,19.76
2023-02-05T07:52:36.193Z,19.74
2023-02-05T07:53:36.248Z,19.74
2023-02-05T07:54:36.251Z,19.76
2023-02-05T07:55:36.422Z,19.74
2023-02-05T07:56:36.215Z,19.76
2023-02-05T07:57:36.166Z,19.74
2023-02-05T07:58:36.135Z,19.74
2023-02-05T07:59:36.120Z,19.74
2023-02-05T08:00:36.172Z,19.74
2023-02-05T08:01:36.100Z,19.74
2023-02-05T08:02:36.098Z,19.76
2023-02-05T08:03:36.067Z,19.74
2023-02-05T08:04:36.124Z,19.73
2023-02-05T08:05:37.148Z,19.74
2023-02-05T08:06:36.108Z,19.73
2023-02-05T08:07:36.017Z,19.74
2023-02-05T08:08:36.036Z,19.74
2023-02-05T08:09:36.016Z,19.76
2023-02-05T08:10:36.022Z,19.74
2023-02-05T08:11:35.986Z,19.74
2023-02-05T08:12:36.026Z,19.74
2023-02-05T08:13:35.982Z,19.76
2023-02-05T08:14:35.968Z,19.74
2023-02-05T08:15:36.086Z,19.73
2023-02-05T08:16:36.031Z,19.74
2023-02-05T08:17:35.910Z,19.74
2023-02-05T08:18:37.630Z,19.76
2023-02-05T08:19:35.904Z,19.74
2023-02-05T08:20:35.921Z,19.74
2023-02-05T08:21:35.910Z,19.73
2023-02-05T08:22:35.905Z,19.74
2023-02-05T08:23:35.878Z,19.73
2023-02-05T08:24:35.879Z,19.73
2023-02-05T08:25:36.213Z,19.73
2023-02-05T08:26:35.859Z,19.73
2023-02-05T08:27:35.798Z,19.73
2023-02-05T08:28:35.838Z,19.74
2023-02-05T08:29:35.818Z,19.74
2023-02-05T08:30:35.871Z,19.73
2023-02-05T08:31:35.841Z,19.73
2023-02-05T08:32:35.799Z,19.73
2023-02-05T08:33:35.770Z,19.74
2023-02-05T08:34:35.802Z,19.74
2023-02-05T08:35:36.018Z,19.74
2023-02-05T08:36:35.746Z,19.74
2023-02-05T08:37:35.727Z,19.73
2023-02-05T08:38:35.719Z,19.73
2023-02-05T08:39:35.762Z,19.73
2023-02-05T08:40:35.688Z,19.74
2023-02-05T08:41:35.657Z,19.74
2023-02-05T08:42:35.699Z,19.73
2023-02-05T08:43:35.638Z,19.73
2023-02-05T08:44:35.667Z,19.73
2023-02-05T08:45:36.078Z,19.73
2023-02-05T08:46:48.780Z,19.73
2023-02-05T08:47:36.624Z,19.74
2023-02-05T08:48:35.627Z,19.74
2023-02-05T08:49:37.468Z,19.74
2023-02-05T08:50:35.629Z,19.74
2023-02-05T08:51:35.571Z,19.74
2023-02-05T08:52:35.615Z,19.74
2023-02-05T08:53:35.529Z,19.73
2023-02-05T08:54:35.593Z,19.73
2023-02-05T08:55:35.804Z,19.74
2023-02-05T08:56:40.291Z,19.74
2023-02-05T08:57:35.536Z,19.73
2023-02-05T08:58:35.507Z,19.73
2023-02-05T08:59:35.481Z,19.73
2023-02-05T09:00:35.530Z,19.73
2023-02-05T09:01:35.497Z,19.73
2023-02-05T09:02:35.460Z,19.73
2023-02-05T09:03:35.432Z,19.73
2023-02-05T09:04:35.531Z,19.74
2023-02-05T09:05:35.732Z,19.74
2023-02-05T09:06:35.428Z,19.74
2023-02-05T09:07:35.394Z,19.73
2023-02-05T09:08:35.399Z,19.73
2023-02-05T09:09:35.440Z,19.73
2023-02-05T09:10:35.389Z,19.73
2023-02-05T09:11:35.364Z,19.73
2023-02-05T09:12:35.350Z,19.71
2023-02-05T09:13:35.341Z,19.71
2023-02-05T09:14:35.511Z,19.73
2023-02-05T09:15:36.441Z,19.73
2023-02-05T09:16:35.352Z,19.73
2023-02-05T09:17:35.311Z,19.73
2023-02-05T09:18:35.343Z,19.73
2023-02-05T09:19:35.298Z,19.73
2023-02-05T09:20:35.305Z,19.71
2023-02-05T09:21:35.300Z,19.73
2023-02-05T09:22:35.278Z,19.73
2023-02-05T09:23:35.230Z,19.74
2023-02-05T09:24:35.220Z,19.73
2023-02-05T09:25:35.508Z,19.73
2023-02-05T09:26:36.184Z,19.74
2023-02-05T09:27:35.224Z,19.73
2023-02-05T09:28:35.223Z,19.73
2023-02-05T09:29:35.168Z,19.73
2023-02-05T09:30:35.228Z,19.71
2023-02-05T09:31:35.258Z,19.73
2023-02-05T09:32:35.160Z,19.74
2023-02-05T09:33:35.163Z,19.73
2023-02-05T09:34:35.168Z,19.74
2023-02-05T09:35:35.503Z,19.73
2023-02-05T09:36:35.117Z,19.74
2023-02-05T09:37:35.086Z,19.76
2023-02-05T09:38:35.104Z,19.74
2023-02-05T09:40:17.696Z,19.73
2023-02-05T09:40:36.071Z,19.74
2023-02-05T09:41:35.049Z,19.73
2023-02-05T09:42:35.076Z,19.73
2023-02-05T09:43:35.057Z,19.74
2023-02-05T09:44:35.097Z,19.74
2023-02-05T09:45:37.926Z,19.73
2023-02-05T09:46:35.027Z,19.73
2023-02-05T09:47:34.997Z,19.74
2023-02-05T09:48:35.005Z,19.73
2023-02-05T09:49:34.967Z,19.74
2023-02-05T09:50:34.984Z,19.74
2023-02-05T09:51:34.950Z,19.73
2023-02-05T09:52:34.968Z,19.73
2023-02-05T09:53:34.942Z,19.74
2023-02-05T09:54:34.925Z,19.74
2023-02-05T09:55:35.205Z,19.73
2023-02-05T09:56:36.986Z,19.74
2023-02-05T09:57:34.901Z,19.73
2023-02-05T09:58:34.895Z,19.74
2023-02-05T09:59:34.886Z,19.74
2023-02-05T10:00:34.896Z,19.74
2023-02-05T10:01:34.900Z,19.74
2023-02-05T10:02:34.853Z,19.73
2023-02-05T10:03:34.835Z,19.74
2023-02-05T10:04:34.911Z,19.74
2023-02-05T10:05:35.105Z,19.74
2023-02-05T10:06:34.821Z,19.73
2023-02-05T10:07:34.760Z,19.74
2023-02-05T10:08:36.269Z,19.76
2023-02-05T10:09:34.800Z,19.74
2023-02-05T10:10:34.730Z,19.74
2023-02-05T10:11:34.751Z,19.74
2023-02-05T10:12:34.704Z,19.73
2023-02-05T10:14:31.428Z,19.76
2023-02-05T10:15:31.439Z,19.73
2023-02-05T10:16:31.429Z,19.71
2023-02-05T10:17:31.399Z,19.74
2023-02-05T10:18:31.387Z,19.73
2023-02-05T10:19:31.356Z,19.73
2023-02-05T10:20:31.348Z,19.73
2023-02-05T10:21:31.378Z,19.71
2023-02-05T10:22:31.346Z,19.73
2023-02-05T10:23:31.326Z,19.73
2023-02-05T10:24:31.302Z,19.73
2023-02-05T10:25:31.318Z,19.74
2023-02-05T10:26:31.276Z,19.73
2023-02-05T10:27:31.286Z,19.73
2023-02-05T10:28:31.287Z,19.73
2023-02-05T10:29:31.260Z,19.69
2023-02-05T10:30:31.302Z,19.73
2023-02-05T10:31:31.263Z,19.74
2023-02-05T10:32:31.213Z,19.73
2023-02-05T10:33:31.287Z,19.73
2023-02-05T10:34:31.204Z,19.73
2023-02-05T10:35:31.199Z,19.73
2023-02-05T10:36:32.133Z,19.73
2023-02-05T10:37:31.213Z,19.71
2023-02-05T10:38:31.160Z,19.71
2023-02-05T10:39:31.178Z,19.73
2023-02-05T10:40:31.134Z,19.71
2023-02-05T10:41:31.140Z,19.73
2023-02-05T10:42:31.108Z,19.73
2023-02-05T10:43:31.131Z,19.71
2023-02-05T10:44:31.103Z,19.71
2023-02-05T10:45:31.104Z,19.71
2023-02-05T10:46:31.175Z,19.69
2023-02-05T10:47:31.109Z,19.71
2023-02-05T10:48:31.049Z,19.71
2023-02-05T10:49:31.058Z,19.73
2023-02-05T10:50:31.051Z,19.71
2023-02-05T10:51:31.020Z,19.71
2023-02-05T10:52:31.013Z,19.73
2023-02-05T10:53:31.023Z,19.73
2023-02-05T10:54:31.028Z,19.71
2023-02-05T10:55:31.057Z,19.69
2023-02-05T10:56:30.981Z,19.71
2023-02-05T10:57:30.973Z,19.71
2023-02-05T10:58:30.951Z,19.69
2023-02-05T10:59:30.969Z,19.71
2023-02-05T11:00:31.066Z,19.71
2023-02-05T11:01:30.957Z,19.68
2023-02-05T11:02:30.934Z,19.69
2023-02-05T11:03:30.899Z,19.69
2023-02-05T11:04:30.879Z,19.71
2023-02-05T11:05:30.892Z,19.69
2023-02-05T11:06:30.849Z,19.71
2023-02-05T11:07:30.874Z,19.69
2023-02-05T11:08:30.845Z,19.69
2023-02-05T11:09:30.884Z,19.69
2023-02-05T11:10:30.820Z,19.69
2023-02-05T11:11:30.853Z,19.71
2023-02-05T11:12:31.748Z,19.69
2023-02-05T11:13:30.802Z,19.71
2023-02-05T11:14:30.811Z,19.71
2023-02-05T11:15:30.808Z,19.68
2023-02-05T11:16:30.788Z,19.69
2023-02-05T11:17:30.781Z,19.69
2023-02-05T11:18:30.718Z,19.69
2023-02-05T11:19:30.726Z,19.69
2023-02-05T11:20:30.718Z,19.69
2023-02-05T11:21:31.679Z,19.68
2023-02-05T11:22:30.703Z,19.68
2023-02-05T11:23:30.749Z,19.69
2023-02-05T11:24:30.738Z,19.68
2023-02-05T11:25:31.667Z,19.71
2023-02-05T11:26:30.650Z,19.69
2023-02-05T11:27:30.690Z,19.69
2023-02-05T11:28:30.650Z,19.69
2023-02-05T11:29:30.640Z,19.68
2023-02-05T11:30:50.453Z,19.69
2023-02-05T11:31:31.692Z,19.69
2023-02-05T11:32:30.594Z,19.69
2023-02-05T11:33:30.748Z,19.69
2023-02-05T11:34:30.605Z,19.69
2023-02-05T11:35:30.590Z,19.68
2023-02-05T11:36:30.539Z,19.69
2023-02-05T11:37:30.548Z,19.69
2023-02-05T11:38:30.542Z,19.69
2023-02-05T11:39:30.547Z,19.69
2023-02-05T11:40:30.511Z,19.69
2023-02-05T11:41:30.524Z,19.69
2023-02-05T11:42:30.502Z,19.69
2023-02-05T11:43:30.479Z,19.69
2023-02-05T11:44:30.699Z,19.69
2023-02-05T11:45:30.512Z,19.68
2023-02-05T11:46:30.485Z,19.69
2023-02-05T11:47:30.438Z,19.69
2023-02-05T11:48:30.408Z,19.69
2023-02-05T11:49:30.428Z,19.69
2023-02-05T11:50:30.402Z,19.69
2023-02-05T11:51:30.408Z,19.69
2023-02-05T11:52:30.388Z,19.68
2023-02-05T11:53:30.378Z,19.68
2023-02-05T11:54:30.379Z,19.68
2023-02-05T11:55:30.371Z,19.69
2023-02-05T11:56:30.352Z,19.68
2023-02-05T11:57:30.394Z,19.69
2023-02-05T11:58:36.613Z,19.69
2023-02-05T11:59:31.352Z,19.68
2023-02-05T12:00:30.313Z,19.69
2023-02-05T12:01:30.286Z,19.69
2023-02-05T12:02:30.574Z,19.69
2023-02-05T12:03:30.256Z,19.69
2023-02-05T12:04:30.262Z,19.69
2023-02-05T12:05:30.233Z,19.69
2023-02-05T12:06:30.243Z,19.69
2023-02-05T12:07:30.245Z,19.69
2023-02-05T12:08:30.256Z,19.69
2023-02-05T12:09:30.193Z,19.68
2023-02-05T12:10:30.207Z,19.69
2023-02-05T12:11:30.182Z,19.69
2023-02-05T12:12:30.199Z,19.69
2023-02-05T12:13:30.174Z,19.68
2023-02-05T12:14:30.168Z,19.69
2023-02-05T12:15:30.158Z,19.69
2023-02-05T12:16:30.155Z,19.68
2023-02-05T12:17:30.126Z,19.69
2023-02-05T12:18:30.126Z,19.71
2023-02-05T12:19:30.984Z,19.69
2023-02-05T12:20:30.123Z,19.68
2023-02-05T12:21:30.075Z,19.69
2023-02-05T12:22:30.086Z,19.69
2023-02-05T12:23:30.073Z,19.69
2023-02-05T12:24:30.077Z,19.69
2023-02-05T12:25:30.046Z,19.68
2023-02-05T12:26:31.044Z,19.68
2023-02-05T12:27:30.022Z,19.69
2023-02-05T12:28:30.021Z,19.68
2023-02-05T12:29:30.047Z,19.66
2023-02-05T12:30:30.005Z,19.68
2023-02-05T12:31:30.003Z,19.68
2023-02-05T12:32:29.983Z,19.68
2023-02-05T12:33:29.954Z,19.66
2023-02-05T12:34:29.947Z,19.66
2023-02-05T12:35:29.981Z,19.66
2023-02-05T12:36:29.919Z,19.66
2023-02-05T12:37:29.891Z,19.68
2023-02-05T12:38:32.749Z,19.68
2023-02-05T12:39:29.872Z,19.68
2023-02-05T12:40:30.078Z,19.66
2023-02-05T12:41:29.883Z,19.68
2023-02-05T12:42:29.849Z,19.66
2023-02-05T12:43:29.841Z,19.68
2023-02-05T12:44:32.114Z,19.65
2023-02-05T12:45:29.833Z,19.66
2023-02-05T12:46:29.831Z,19.66
2023-02-05T12:47:29.801Z,19.66
2023-02-05T12:48:29.792Z,19.66
2023-02-05T12:49:29.769Z,19.66
2023-02-05T12:50:29.773Z,19.66
2023-02-05T12:51:30.052Z,19.68
2023-02-05T12:52:29.749Z,19.68
2023-02-05T12:53:29.730Z,19.65
2023-02-05T12:54:29.762Z,19.68
2023-02-05T12:55:29.720Z,19.66